sensor_id;sensor_type;location;lat;lon;timestamp;temperature;humidity
38020;DHT22;23829;51.350;17.286;2023-05-14T00:01:13;24.80;33.60
38020;DHT22;23829;51.350;17.286;2023-05-14T00:03:39;24.80;33.70
38020;DHT22;23829;51.350;17.286;2023-05-14T00:06:06;24.90;33.50
38020;DHT22;23829;51.350;17.286;2023-05-14T00:08:34;25.00;33.20
38020;DHT22;23829;51.350;17.286;2023-05-14T00:11:00;25.10;33.20
38020;DHT22;23829;51.350;17.286;2023-05-14T00:13:27;25.20;32.80
38020;DHT22;23829;51.350;17.286;2023-05-14T00:15:54;25.20;33.20
38020;DHT22;23829;51.350;17.286;2023-05-14T00:18:20;25.30;32.90
38020;DHT22;23829;51.350;17.286;2023-05-14T00:20:46;25.30;33.00
38020;DHT22;23829;51.350;17.286;2023-05-14T00:23:13;25.30;33.10
38020;DHT22;23829;51.350;17.286;2023-05-14T00:25:39;25.10;33.30
38020;DHT22;23829;51.350;17.286;2023-05-14T00:28:06;24.90;33.60
38020;DHT22;23829;51.350;17.286;2023-05-14T00:30:32;24.80;33.70
38020;DHT22;23829;51.350;17.286;2023-05-14T00:32:59;24.80;33.70
38020;DHT22;23829;51.350;17.286;2023-05-14T00:35:25;25.00;33.40
38020;DHT22;23829;51.350;17.286;2023-05-14T00:37:51;25.00;33.60
38020;DHT22;23829;51.350;17.286;2023-05-14T00:40:19;24.90;33.70
38020;DHT22;23829;51.350;17.286;2023-05-14T00:42:45;24.90;33.80
38020;DHT22;23829;51.350;17.286;2023-05-14T00:45:12;24.90;33.90
38020;DHT22;23829;51.350;17.286;2023-05-14T00:47:39;24.80;34.00
38020;DHT22;23829;51.350;17.286;2023-05-14T00:50:05;24.80;34.20
38020;DHT22;23829;51.350;17.286;2023-05-14T00:52:32;24.70;34.30
38020;DHT22;23829;51.350;17.286;2023-05-14T00:55:00;24.70;34.40
38020;DHT22;23829;51.350;17.286;2023-05-14T00:57:28;24.70;34.30
38020;DHT22;23829;51.350;17.286;2023-05-14T00:59:54;24.50;34.60
38020;DHT22;23829;51.350;17.286;2023-05-14T01:02:21;24.50;34.90
38020;DHT22;23829;51.350;17.286;2023-05-14T01:04:48;24.50;34.80
38020;DHT22;23829;51.350;17.286;2023-05-14T01:07:48;24.50;34.80
38020;DHT22;23829;51.350;17.286;2023-05-14T01:10:31;24.50;35.10
38020;DHT22;23829;51.350;17.286;2023-05-14T01:13:17;24.50;35.10
38020;DHT22;23829;51.350;17.286;2023-05-14T01:15:47;24.40;35.10
38020;DHT22;23829;51.350;17.286;2023-05-14T01:18:17;24.50;35.70
38020;DHT22;23829;51.350;17.286;2023-05-14T01:20:44;24.60;35.80
38020;DHT22;23829;51.350;17.286;2023-05-14T01:23:10;24.70;35.80
38020;DHT22;23829;51.350;17.286;2023-05-14T01:25:37;24.70;36.60
38020;DHT22;23829;51.350;17.286;2023-05-14T01:28:19;24.70;36.00
38020;DHT22;23829;51.350;17.286;2023-05-14T01:30:53;24.80;35.70
38020;DHT22;23829;51.350;17.286;2023-05-14T01:33:24;24.80;35.70
38020;DHT22;23829;51.350;17.286;2023-05-14T01:35:53;24.80;35.80
38020;DHT22;23829;51.350;17.286;2023-05-14T01:38:20;25.00;35.60
38020;DHT22;23829;51.350;17.286;2023-05-14T01:40:48;25.00;35.60
38020;DHT22;23829;51.350;17.286;2023-05-14T01:43:16;25.00;35.60
38020;DHT22;23829;51.350;17.286;2023-05-14T01:45:42;25.10;35.20
38020;DHT22;23829;51.350;17.286;2023-05-14T01:48:09;25.20;35.20
38020;DHT22;23829;51.350;17.286;2023-05-14T01:50:36;25.20;34.90
38020;DHT22;23829;51.350;17.286;2023-05-14T01:53:02;25.00;35.50
38020;DHT22;23829;51.350;17.286;2023-05-14T01:55:29;25.00;35.40
38020;DHT22;23829;51.350;17.286;2023-05-14T01:57:55;25.10;35.30
38020;DHT22;23829;51.350;17.286;2023-05-14T02:00:23;25.20;35.00
38020;DHT22;23829;51.350;17.286;2023-05-14T02:02:51;25.20;34.90
38020;DHT22;23829;51.350;17.286;2023-05-14T02:05:17;25.00;34.80
38020;DHT22;23829;51.350;17.286;2023-05-14T02:07:44;25.00;35.00
38020;DHT22;23829;51.350;17.286;2023-05-14T02:10:11;24.90;35.00
38020;DHT22;23829;51.350;17.286;2023-05-14T02:12:37;24.80;35.10
38020;DHT22;23829;51.350;17.286;2023-05-14T02:15:04;24.60;35.30
38020;DHT22;23829;51.350;17.286;2023-05-14T02:17:32;24.50;35.30
38020;DHT22;23829;51.350;17.286;2023-05-14T02:19:58;24.60;35.20
38020;DHT22;23829;51.350;17.286;2023-05-14T02:22:24;24.30;35.40
38020;DHT22;23829;51.350;17.286;2023-05-14T02:24:51;24.20;35.80
38020;DHT22;23829;51.350;17.286;2023-05-14T02:27:17;24.10;35.80
38020;DHT22;23829;51.350;17.286;2023-05-14T02:29:44;23.90;36.20
38020;DHT22;23829;51.350;17.286;2023-05-14T02:32:10;24.10;36.00
38020;DHT22;23829;51.350;17.286;2023-05-14T02:34:37;23.90;35.70
38020;DHT22;23829;51.350;17.286;2023-05-14T02:37:03;23.80;37.00
38020;DHT22;23829;51.350;17.286;2023-05-14T02:39:31;23.60;36.20
38020;DHT22;23829;51.350;17.286;2023-05-14T02:41:57;23.40;36.80
38020;DHT22;23829;51.350;17.286;2023-05-14T02:44:23;23.30;36.70
38020;DHT22;23829;51.350;17.286;2023-05-14T02:46:50;23.50;36.70
38020;DHT22;23829;51.350;17.286;2023-05-14T02:49:16;23.30;36.80
38020;DHT22;23829;51.350;17.286;2023-05-14T02:51:42;23.00;37.20
38020;DHT22;23829;51.350;17.286;2023-05-14T02:54:09;23.50;37.10
38020;DHT22;23829;51.350;17.286;2023-05-14T02:56:35;23.30;37.00
38020;DHT22;23829;51.350;17.286;2023-05-14T02:59:02;23.30;37.10
38020;DHT22;23829;51.350;17.286;2023-05-14T03:01:28;23.30;37.00
38020;DHT22;23829;51.350;17.286;2023-05-14T03:03:55;23.40;37.20
38020;DHT22;23829;51.350;17.286;2023-05-14T03:06:21;23.40;36.80
38020;DHT22;23829;51.350;17.286;2023-05-14T03:08:48;23.40;36.90
38020;DHT22;23829;51.350;17.286;2023-05-14T03:11:14;23.50;36.80
38020;DHT22;23829;51.350;17.286;2023-05-14T03:13:41;23.60;36.50
38020;DHT22;23829;51.350;17.286;2023-05-14T03:16:07;23.70;36.30
38020;DHT22;23829;51.350;17.286;2023-05-14T03:18:34;23.60;36.40
38020;DHT22;23829;51.350;17.286;2023-05-14T03:21:01;23.50;36.50
38020;DHT22;23829;51.350;17.286;2023-05-14T03:23:29;23.50;36.70
38020;DHT22;23829;51.350;17.286;2023-05-14T03:25:56;23.50;36.50
38020;DHT22;23829;51.350;17.286;2023-05-14T03:28:24;23.30;36.90
38020;DHT22;23829;51.350;17.286;2023-05-14T03:30:50;23.20;37.10
38020;DHT22;23829;51.350;17.286;2023-05-14T03:33:17;23.20;37.20
38020;DHT22;23829;51.350;17.286;2023-05-14T03:35:43;23.00;37.60
38020;DHT22;23829;51.350;17.286;2023-05-14T03:38:10;23.30;37.20
38020;DHT22;23829;51.350;17.286;2023-05-14T03:40:36;23.50;37.20
38020;DHT22;23829;51.350;17.286;2023-05-14T03:43:03;23.50;36.80
38020;DHT22;23829;51.350;17.286;2023-05-14T03:45:29;23.50;36.80
38020;DHT22;23829;51.350;17.286;2023-05-14T03:47:58;23.40;36.70
38020;DHT22;23829;51.350;17.286;2023-05-14T03:50:25;23.40;36.90
38020;DHT22;23829;51.350;17.286;2023-05-14T03:52:52;23.50;37.00
38020;DHT22;23829;51.350;17.286;2023-05-14T03:55:19;23.60;36.80
38020;DHT22;23829;51.350;17.286;2023-05-14T03:57:47;23.80;36.60
38020;DHT22;23829;51.350;17.286;2023-05-14T04:00:14;23.80;36.50
38020;DHT22;23829;51.350;17.286;2023-05-14T04:02:43;24.10;36.30
38020;DHT22;23829;51.350;17.286;2023-05-14T04:05:09;24.00;36.10
38020;DHT22;23829;51.350;17.286;2023-05-14T04:07:36;24.10;36.20
38020;DHT22;23829;51.350;17.286;2023-05-14T04:10:03;24.10;36.40
38020;DHT22;23829;51.350;17.286;2023-05-14T04:12:31;24.30;36.20
38020;DHT22;23829;51.350;17.286;2023-05-14T04:14:58;24.20;36.20
38020;DHT22;23829;51.350;17.286;2023-05-14T04:17:24;24.30;36.20
38020;DHT22;23829;51.350;17.286;2023-05-14T04:19:51;24.30;36.20
38020;DHT22;23829;51.350;17.286;2023-05-14T04:22:18;24.50;36.30
38020;DHT22;23829;51.350;17.286;2023-05-14T04:24:44;24.60;35.80
38020;DHT22;23829;51.350;17.286;2023-05-14T04:27:13;24.60;36.00
38020;DHT22;23829;51.350;17.286;2023-05-14T04:29:39;24.60;36.10
38020;DHT22;23829;51.350;17.286;2023-05-14T04:32:06;24.60;36.00
38020;DHT22;23829;51.350;17.286;2023-05-14T04:34:32;24.80;35.80
38020;DHT22;23829;51.350;17.286;2023-05-14T04:36:58;25.10;35.40
38020;DHT22;23829;51.350;17.286;2023-05-14T04:39:25;25.00;35.50
38020;DHT22;23829;51.350;17.286;2023-05-14T04:41:51;25.20;35.30
38020;DHT22;23829;51.350;17.286;2023-05-14T04:44:17;25.10;35.40
38020;DHT22;23829;51.350;17.286;2023-05-14T04:46:44;25.20;35.20
38020;DHT22;23829;51.350;17.286;2023-05-14T04:49:10;25.30;35.20
38020;DHT22;23829;51.350;17.286;2023-05-14T04:51:37;25.40;35.30
38020;DHT22;23829;51.350;17.286;2023-05-14T04:54:03;25.70;35.80
38020;DHT22;23829;51.350;17.286;2023-05-14T04:56:29;25.80;35.10
38020;DHT22;23829;51.350;17.286;2023-05-14T04:58:56;25.70;35.10
38020;DHT22;23829;51.350;17.286;2023-05-14T05:01:22;26.10;35.10
38020;DHT22;23829;51.350;17.286;2023-05-14T05:03:48;25.90;35.10
38020;DHT22;23829;51.350;17.286;2023-05-14T05:06:15;25.60;35.20
38020;DHT22;23829;51.350;17.286;2023-05-14T05:08:41;26.00;35.00
38020;DHT22;23829;51.350;17.286;2023-05-14T05:11:08;25.90;34.90
38020;DHT22;23829;51.350;17.286;2023-05-14T05:13:34;26.50;35.20
38020;DHT22;23829;51.350;17.286;2023-05-14T05:16:00;26.40;34.60
38020;DHT22;23829;51.350;17.286;2023-05-14T05:18:26;26.30;34.80
38020;DHT22;23829;51.350;17.286;2023-05-14T05:20:53;26.20;35.00
38020;DHT22;23829;51.350;17.286;2023-05-14T05:23:19;26.30;34.50
38020;DHT22;23829;51.350;17.286;2023-05-14T05:25:46;26.10;34.60
38020;DHT22;23829;51.350;17.286;2023-05-14T05:28:12;25.90;34.50
38020;DHT22;23829;51.350;17.286;2023-05-14T05:30:39;25.70;35.00
38020;DHT22;23829;51.350;17.286;2023-05-14T05:33:05;25.90;34.80
38020;DHT22;23829;51.350;17.286;2023-05-14T05:35:32;26.30;34.80
38020;DHT22;23829;51.350;17.286;2023-05-14T05:37:58;26.70;34.10
38020;DHT22;23829;51.350;17.286;2023-05-14T05:40:25;26.70;34.30
38020;DHT22;23829;51.350;17.286;2023-05-14T05:42:51;26.80;34.10
38020;DHT22;23829;51.350;17.286;2023-05-14T05:45:18;27.40;33.30
38020;DHT22;23829;51.350;17.286;2023-05-14T05:47:44;27.50;33.20
38020;DHT22;23829;51.350;17.286;2023-05-14T05:50:11;27.40;33.30
38020;DHT22;23829;51.350;17.286;2023-05-14T05:52:38;27.40;33.40
38020;DHT22;23829;51.350;17.286;2023-05-14T05:55:05;27.30;33.10
38020;DHT22;23829;51.350;17.286;2023-05-14T05:57:31;27.30;33.20
38020;DHT22;23829;51.350;17.286;2023-05-14T05:59:58;27.70;32.70
38020;DHT22;23829;51.350;17.286;2023-05-14T06:02:24;27.70;32.80
38020;DHT22;23829;51.350;17.286;2023-05-14T06:04:51;27.60;33.00
38020;DHT22;23829;51.350;17.286;2023-05-14T06:07:18;27.60;33.10
38020;DHT22;23829;51.350;17.286;2023-05-14T06:09:44;27.60;33.30
38020;DHT22;23829;51.350;17.286;2023-05-14T06:12:10;27.50;33.30
38020;DHT22;23829;51.350;17.286;2023-05-14T06:14:37;27.60;33.10
38020;DHT22;23829;51.350;17.286;2023-05-14T06:17:03;27.70;32.90
38020;DHT22;23829;51.350;17.286;2023-05-14T06:19:30;28.00;32.50
38020;DHT22;23829;51.350;17.286;2023-05-14T06:21:56;27.90;32.40
38020;DHT22;23829;51.350;17.286;2023-05-14T06:24:23;27.90;32.40
38020;DHT22;23829;51.350;17.286;2023-05-14T06:26:49;27.80;32.70
38020;DHT22;23829;51.350;17.286;2023-05-14T06:29:15;27.50;32.60
38020;DHT22;23829;51.350;17.286;2023-05-14T06:31:42;27.80;32.50
38020;DHT22;23829;51.350;17.286;2023-05-14T06:34:08;27.60;32.60
38020;DHT22;23829;51.350;17.286;2023-05-14T06:36:35;27.50;32.60
38020;DHT22;23829;51.350;17.286;2023-05-14T06:39:02;27.40;33.10
38020;DHT22;23829;51.350;17.286;2023-05-14T06:41:28;27.20;33.00
38020;DHT22;23829;51.350;17.286;2023-05-14T06:43:55;26.90;33.30
38020;DHT22;23829;51.350;17.286;2023-05-14T06:46:21;26.90;33.80
38020;DHT22;23829;51.350;17.286;2023-05-14T06:48:48;27.20;33.50
38020;DHT22;23829;51.350;17.286;2023-05-14T06:51:14;27.60;33.00
38020;DHT22;23829;51.350;17.286;2023-05-14T06:53:41;27.70;32.50
38020;DHT22;23829;51.350;17.286;2023-05-14T06:56:07;28.10;31.10
38020;DHT22;23829;51.350;17.286;2023-05-14T06:58:34;28.30;31.20
38020;DHT22;23829;51.350;17.286;2023-05-14T07:01:00;29.00;30.60
38020;DHT22;23829;51.350;17.286;2023-05-14T07:03:26;28.90;30.30
38020;DHT22;23829;51.350;17.286;2023-05-14T07:05:54;28.80;30.30
38020;DHT22;23829;51.350;17.286;2023-05-14T07:08:20;28.80;30.90
38020;DHT22;23829;51.350;17.286;2023-05-14T07:10:46;28.50;31.10
38020;DHT22;23829;51.350;17.286;2023-05-14T07:13:13;28.30;31.20
38020;DHT22;23829;51.350;17.286;2023-05-14T07:15:39;28.50;30.80
38020;DHT22;23829;51.350;17.286;2023-05-14T07:18:06;28.50;31.10
38020;DHT22;23829;51.350;17.286;2023-05-14T07:20:32;28.80;30.50
38020;DHT22;23829;51.350;17.286;2023-05-14T07:22:59;28.70;30.70
38020;DHT22;23829;51.350;17.286;2023-05-14T07:25:25;28.60;30.00
38020;DHT22;23829;51.350;17.286;2023-05-14T07:27:51;28.70;30.30
38020;DHT22;23829;51.350;17.286;2023-05-14T07:30:18;29.20;30.90
38020;DHT22;23829;51.350;17.286;2023-05-14T07:32:44;28.60;30.20
38020;DHT22;23829;51.350;17.286;2023-05-14T07:35:10;28.50;31.40
38020;DHT22;23829;51.350;17.286;2023-05-14T07:37:37;28.20;30.90
38020;DHT22;23829;51.350;17.286;2023-05-14T07:40:04;28.40;31.20
38020;DHT22;23829;51.350;17.286;2023-05-14T07:42:30;28.10;31.40
38020;DHT22;23829;51.350;17.286;2023-05-14T07:44:57;28.20;31.40
38020;DHT22;23829;51.350;17.286;2023-05-14T07:47:23;28.60;31.10
38020;DHT22;23829;51.350;17.286;2023-05-14T07:49:53;28.90;30.90
38020;DHT22;23829;51.350;17.286;2023-05-14T07:52:20;29.10;30.80
38020;DHT22;23829;51.350;17.286;2023-05-14T07:54:47;29.20;30.90
38020;DHT22;23829;51.350;17.286;2023-05-14T07:57:14;29.00;30.20
38020;DHT22;23829;51.350;17.286;2023-05-14T07:59:40;29.20;30.80
38020;DHT22;23829;51.350;17.286;2023-05-14T08:02:07;28.80;31.30
38020;DHT22;23829;51.350;17.286;2023-05-14T08:04:35;28.60;31.10
38020;DHT22;23829;51.350;17.286;2023-05-14T08:07:01;28.50;31.70
38020;DHT22;23829;51.350;17.286;2023-05-14T08:09:28;28.30;31.10
38020;DHT22;23829;51.350;17.286;2023-05-14T08:11:54;28.70;30.50
38020;DHT22;23829;51.350;17.286;2023-05-14T08:14:20;28.90;30.20
38020;DHT22;23829;51.350;17.286;2023-05-14T08:16:47;29.20;30.20
38020;DHT22;23829;51.350;17.286;2023-05-14T08:19:14;29.30;29.40
38020;DHT22;23829;51.350;17.286;2023-05-14T08:21:41;29.20;29.60
38020;DHT22;23829;51.350;17.286;2023-05-14T08:24:07;29.30;29.80
38020;DHT22;23829;51.350;17.286;2023-05-14T08:26:33;29.90;29.40
38020;DHT22;23829;51.350;17.286;2023-05-14T08:29:00;29.90;29.00
38020;DHT22;23829;51.350;17.286;2023-05-14T08:31:26;30.10;29.30
38020;DHT22;23829;51.350;17.286;2023-05-14T08:33:53;29.80;29.80
38020;DHT22;23829;51.350;17.286;2023-05-14T08:36:19;29.90;30.00
38020;DHT22;23829;51.350;17.286;2023-05-14T08:38:45;29.80;30.00
38020;DHT22;23829;51.350;17.286;2023-05-14T08:41:14;30.20;29.40
38020;DHT22;23829;51.350;17.286;2023-05-14T08:46:16;30.90;28.40
38020;DHT22;23829;51.350;17.286;2023-05-14T08:48:46;31.00;27.70
38020;DHT22;23829;51.350;17.286;2023-05-14T08:51:13;30.90;27.90
38020;DHT22;23829;51.350;17.286;2023-05-14T08:53:39;30.80;28.10
38020;DHT22;23829;51.350;17.286;2023-05-14T08:56:07;30.80;28.40
38020;DHT22;23829;51.350;17.286;2023-05-14T09:11:21;31.00;27.80
38020;DHT22;23829;51.350;17.286;2023-05-14T09:13:49;30.90;27.80
38020;DHT22;23829;51.350;17.286;2023-05-14T09:16:17;31.30;27.50
38020;DHT22;23829;51.350;17.286;2023-05-14T09:18:44;30.70;27.40
38020;DHT22;23829;51.350;17.286;2023-05-14T09:21:13;30.60;27.80
38020;DHT22;23829;51.350;17.286;2023-05-14T09:23:43;30.60;27.90
38020;DHT22;23829;51.350;17.286;2023-05-14T09:26:10;30.50;28.10
38020;DHT22;23829;51.350;17.286;2023-05-14T09:28:40;30.00;27.90
38020;DHT22;23829;51.350;17.286;2023-05-14T09:31:09;30.00;28.10
38020;DHT22;23829;51.350;17.286;2023-05-14T09:33:35;29.50;28.90
38020;DHT22;23829;51.350;17.286;2023-05-14T09:36:02;29.80;28.20
38020;DHT22;23829;51.350;17.286;2023-05-14T09:38:29;29.60;28.90
38020;DHT22;23829;51.350;17.286;2023-05-14T09:40:59;29.50;29.00
38020;DHT22;23829;51.350;17.286;2023-05-14T09:43:26;29.90;28.50
38020;DHT22;23829;51.350;17.286;2023-05-14T09:45:52;29.30;29.70
38020;DHT22;23829;51.350;17.286;2023-05-14T09:48:18;29.00;30.90
38020;DHT22;23829;51.350;17.286;2023-05-14T09:50:45;29.50;29.40
38020;DHT22;23829;51.350;17.286;2023-05-14T09:53:13;29.70;29.60
38020;DHT22;23829;51.350;17.286;2023-05-14T09:55:39;29.80;29.30
38020;DHT22;23829;51.350;17.286;2023-05-14T09:58:07;30.50;27.80
38020;DHT22;23829;51.350;17.286;2023-05-14T10:00:34;30.70;28.20
38020;DHT22;23829;51.350;17.286;2023-05-14T10:03:05;30.50;28.70
38020;DHT22;23829;51.350;17.286;2023-05-14T10:05:36;30.50;29.00
38020;DHT22;23829;51.350;17.286;2023-05-14T10:08:09;31.60;28.10
38020;DHT22;23829;51.350;17.286;2023-05-14T10:10:38;31.40;28.10
38020;DHT22;23829;51.350;17.286;2023-05-14T10:13:13;31.00;29.40
38020;DHT22;23829;51.350;17.286;2023-05-14T10:15:51;31.10;28.90
38020;DHT22;23829;51.350;17.286;2023-05-14T10:18:22;31.60;28.40
38020;DHT22;23829;51.350;17.286;2023-05-14T10:21:04;31.50;28.30
38020;DHT22;23829;51.350;17.286;2023-05-14T10:23:32;31.40;28.10
38020;DHT22;23829;51.350;17.286;2023-05-14T10:25:59;31.30;28.30
38020;DHT22;23829;51.350;17.286;2023-05-14T10:28:27;31.50;28.00
38020;DHT22;23829;51.350;17.286;2023-05-14T10:30:53;30.80;28.20
38020;DHT22;23829;51.350;17.286;2023-05-14T10:33:20;31.40;28.70
38020;DHT22;23829;51.350;17.286;2023-05-14T10:35:59;31.50;28.40
38020;DHT22;23829;51.350;17.286;2023-05-14T10:38:27;31.20;28.20
38020;DHT22;23829;51.350;17.286;2023-05-14T10:41:04;31.30;28.90
38020;DHT22;23829;51.350;17.286;2023-05-14T10:43:36;31.20;28.90
38020;DHT22;23829;51.350;17.286;2023-05-14T10:46:04;31.20;29.00
38020;DHT22;23829;51.350;17.286;2023-05-14T10:48:31;31.10;29.40
38020;DHT22;23829;51.350;17.286;2023-05-14T10:50:58;31.70;28.40
38020;DHT22;23829;51.350;17.286;2023-05-14T10:53:39;31.70;28.10
38020;DHT22;23829;51.350;17.286;2023-05-14T10:56:07;32.80;26.90
38020;DHT22;23829;51.350;17.286;2023-05-14T10:58:38;32.70;27.10
38020;DHT22;23829;51.350;17.286;2023-05-14T11:01:06;32.50;27.00
38020;DHT22;23829;51.350;17.286;2023-05-14T11:03:45;32.60;26.60
38020;DHT22;23829;51.350;17.286;2023-05-14T11:06:13;32.60;26.60
38020;DHT22;23829;51.350;17.286;2023-05-14T11:08:40;32.90;26.60
38020;DHT22;23829;51.350;17.286;2023-05-14T11:11:08;32.60;26.60
38020;DHT22;23829;51.350;17.286;2023-05-14T11:13:35;32.80;26.00
38020;DHT22;23829;51.350;17.286;2023-05-14T11:16:02;32.50;26.70
38020;DHT22;23829;51.350;17.286;2023-05-14T11:18:30;32.30;26.40
38020;DHT22;23829;51.350;17.286;2023-05-14T11:21:01;32.10;27.30
38020;DHT22;23829;51.350;17.286;2023-05-14T11:23:28;31.90;27.40
38020;DHT22;23829;51.350;17.286;2023-05-14T11:25:55;32.10;27.50
38020;DHT22;23829;51.350;17.286;2023-05-14T11:28:23;32.10;28.00
38020;DHT22;23829;51.350;17.286;2023-05-14T11:30:50;32.00;27.90
38020;DHT22;23829;51.350;17.286;2023-05-14T11:33:18;32.30;27.30
38020;DHT22;23829;51.350;17.286;2023-05-14T11:35:46;32.40;27.20
38020;DHT22;23829;51.350;17.286;2023-05-14T11:38:18;32.50;27.50
38020;DHT22;23829;51.350;17.286;2023-05-14T11:40:55;32.40;27.00
38020;DHT22;23829;51.350;17.286;2023-05-14T11:43:22;32.70;27.10
38020;DHT22;23829;51.350;17.286;2023-05-14T11:45:50;33.00;26.70
38020;DHT22;23829;51.350;17.286;2023-05-14T11:48:21;32.80;26.90
38020;DHT22;23829;51.350;17.286;2023-05-14T11:50:49;33.30;25.80
38020;DHT22;23829;51.350;17.286;2023-05-14T11:53:26;32.90;26.50
38020;DHT22;23829;51.350;17.286;2023-05-14T11:55:53;32.80;26.70
38020;DHT22;23829;51.350;17.286;2023-05-14T11:58:20;32.80;26.80
38020;DHT22;23829;51.350;17.286;2023-05-14T12:00:53;32.70;26.80
38020;DHT22;23829;51.350;17.286;2023-05-14T12:03:21;32.60;26.90
38020;DHT22;23829;51.350;17.286;2023-05-14T12:05:58;32.60;27.00
38020;DHT22;23829;51.350;17.286;2023-05-14T12:08:29;32.60;26.80
38020;DHT22;23829;51.350;17.286;2023-05-14T12:10:59;32.50;27.30
38020;DHT22;23829;51.350;17.286;2023-05-14T12:13:27;32.70;26.80
38020;DHT22;23829;51.350;17.286;2023-05-14T12:15:59;33.30;26.40
38020;DHT22;23829;51.350;17.286;2023-05-14T12:18:29;33.60;25.70
38020;DHT22;23829;51.350;17.286;2023-05-14T12:21:01;32.90;26.60
38020;DHT22;23829;51.350;17.286;2023-05-14T12:23:29;33.20;26.30
38020;DHT22;23829;51.350;17.286;2023-05-14T12:26:04;32.90;26.70
38020;DHT22;23829;51.350;17.286;2023-05-14T12:28:31;32.90;27.00
38020;DHT22;23829;51.350;17.286;2023-05-14T12:30:58;32.60;27.10
38020;DHT22;23829;51.350;17.286;2023-05-14T12:33:25;32.50;26.90
38020;DHT22;23829;51.350;17.286;2023-05-14T12:35:52;32.60;26.90
38020;DHT22;23829;51.350;17.286;2023-05-14T12:38:19;32.80;26.90
38020;DHT22;23829;51.350;17.286;2023-05-14T12:40:45;32.60;26.80
38020;DHT22;23829;51.350;17.286;2023-05-14T12:43:12;32.80;26.90
38020;DHT22;23829;51.350;17.286;2023-05-14T12:45:39;32.90;26.40
38020;DHT22;23829;51.350;17.286;2023-05-14T12:48:05;32.50;26.20
38020;DHT22;23829;51.350;17.286;2023-05-14T12:50:32;32.00;26.80
38020;DHT22;23829;51.350;17.286;2023-05-14T12:52:58;32.50;26.70
38020;DHT22;23829;51.350;17.286;2023-05-14T12:55:25;32.10;26.90
38020;DHT22;23829;51.350;17.286;2023-05-14T12:57:52;31.80;27.20
38020;DHT22;23829;51.350;17.286;2023-05-14T13:00:19;32.10;27.40
38020;DHT22;23829;51.350;17.286;2023-05-14T13:02:45;32.90;27.00
38020;DHT22;23829;51.350;17.286;2023-05-14T13:05:12;32.70;27.20
38020;DHT22;23829;51.350;17.286;2023-05-14T13:07:39;32.50;26.30
38020;DHT22;23829;51.350;17.286;2023-05-14T13:10:06;32.50;26.20
38020;DHT22;23829;51.350;17.286;2023-05-14T13:12:33;32.80;26.70
38020;DHT22;23829;51.350;17.286;2023-05-14T13:14:59;32.80;26.70
38020;DHT22;23829;51.350;17.286;2023-05-14T13:17:26;33.00;26.40
38020;DHT22;23829;51.350;17.286;2023-05-14T13:19:52;32.50;26.60
38020;DHT22;23829;51.350;17.286;2023-05-14T13:22:19;32.60;26.80
38020;DHT22;23829;51.350;17.286;2023-05-14T13:24:45;32.30;27.00
38020;DHT22;23829;51.350;17.286;2023-05-14T13:27:12;32.40;26.70
38020;DHT22;23829;51.350;17.286;2023-05-14T13:29:38;32.70;26.50
38020;DHT22;23829;51.350;17.286;2023-05-14T13:32:05;33.50;24.90
38020;DHT22;23829;51.350;17.286;2023-05-14T13:34:31;33.20;25.70
38020;DHT22;23829;51.350;17.286;2023-05-14T13:36:58;33.00;25.90
38020;DHT22;23829;51.350;17.286;2023-05-14T13:39:24;33.30;25.90
38020;DHT22;23829;51.350;17.286;2023-05-14T13:41:53;33.30;25.70
38020;DHT22;23829;51.350;17.286;2023-05-14T13:44:21;32.90;26.00
38020;DHT22;23829;51.350;17.286;2023-05-14T13:46:48;33.10;24.80
38020;DHT22;23829;51.350;17.286;2023-05-14T13:49:14;33.20;25.00
38020;DHT22;23829;51.350;17.286;2023-05-14T13:51:41;32.90;25.80
38020;DHT22;23829;51.350;17.286;2023-05-14T13:54:07;32.70;26.20
38020;DHT22;23829;51.350;17.286;2023-05-14T13:56:34;32.80;26.20
38020;DHT22;23829;51.350;17.286;2023-05-14T13:59:00;33.00;26.10
38020;DHT22;23829;51.350;17.286;2023-05-14T14:01:27;33.00;26.40
38020;DHT22;23829;51.350;17.286;2023-05-14T14:03:55;32.90;26.70
38020;DHT22;23829;51.350;17.286;2023-05-14T14:06:22;32.60;26.40
38020;DHT22;23829;51.350;17.286;2023-05-14T14:08:48;32.50;26.60
38020;DHT22;23829;51.350;17.286;2023-05-14T14:11:15;32.90;26.20
38020;DHT22;23829;51.350;17.286;2023-05-14T14:13:42;32.90;26.50
38020;DHT22;23829;51.350;17.286;2023-05-14T14:16:09;33.00;26.60
38020;DHT22;23829;51.350;17.286;2023-05-14T14:18:35;33.80;25.40
38020;DHT22;23829;51.350;17.286;2023-05-14T14:21:02;34.00;25.30
38020;DHT22;23829;51.350;17.286;2023-05-14T14:23:28;33.90;25.20
38020;DHT22;23829;51.350;17.286;2023-05-14T14:25:56;33.60;25.80
38020;DHT22;23829;51.350;17.286;2023-05-14T14:28:22;33.60;25.80
38020;DHT22;23829;51.350;17.286;2023-05-14T14:30:49;34.00;25.20
38020;DHT22;23829;51.350;17.286;2023-05-14T14:33:15;34.40;24.80
38020;DHT22;23829;51.350;17.286;2023-05-14T14:35:43;33.90;25.20
38020;DHT22;23829;51.350;17.286;2023-05-14T14:38:09;33.40;25.30
38020;DHT22;23829;51.350;17.286;2023-05-14T14:40:36;33.10;25.70
38020;DHT22;23829;51.350;17.286;2023-05-14T14:43:02;33.00;25.40
38020;DHT22;23829;51.350;17.286;2023-05-14T14:45:29;33.00;25.70
38020;DHT22;23829;51.350;17.286;2023-05-14T14:48:47;33.20;26.00
38020;DHT22;23829;51.350;17.286;2023-05-14T14:51:08;33.50;25.60
38020;DHT22;23829;51.350;17.286;2023-05-14T14:53:35;33.30;25.60
38020;DHT22;23829;51.350;17.286;2023-05-14T14:56:03;33.00;26.20
38020;DHT22;23829;51.350;17.286;2023-05-14T14:58:29;32.90;25.90
38020;DHT22;23829;51.350;17.286;2023-05-14T15:00:56;32.80;26.20
38020;DHT22;23829;51.350;17.286;2023-05-14T15:03:23;32.60;26.30
38020;DHT22;23829;51.350;17.286;2023-05-14T15:05:50;32.90;26.10
38020;DHT22;23829;51.350;17.286;2023-05-14T15:08:18;33.30;26.10
38020;DHT22;23829;51.350;17.286;2023-05-14T15:10:46;33.50;25.40
38020;DHT22;23829;51.350;17.286;2023-05-14T15:13:12;33.10;25.70
38020;DHT22;23829;51.350;17.286;2023-05-14T15:15:39;33.20;25.80
38020;DHT22;23829;51.350;17.286;2023-05-14T15:18:05;32.80;26.60
38020;DHT22;23829;51.350;17.286;2023-05-14T15:20:32;32.70;26.20
38020;DHT22;23829;51.350;17.286;2023-05-14T15:22:58;32.60;26.30
38020;DHT22;23829;51.350;17.286;2023-05-14T15:25:25;32.70;26.40
38020;DHT22;23829;51.350;17.286;2023-05-14T15:27:51;32.80;26.50
38020;DHT22;23829;51.350;17.286;2023-05-14T15:30:18;33.00;26.70
38020;DHT22;23829;51.350;17.286;2023-05-14T15:32:45;32.90;26.50